sensor_id;sensor_type;location;lat;lon;timestamp;pressure;altitude;pressure_sealevel;temperature;humidity
12969;BME280;6549;53.128;8.182;2023-06-14T00:01:46;101518.72;;;15.76;100.00
12969;BME280;6549;53.128;8.182;2023-06-14T00:04:47;101519.16;;;15.67;100.00
12969;BME280;6549;53.128;8.182;2023-06-14T00:07:48;101524.38;;;15.51;100.00
12969;BME280;6549;53.128;8.182;2023-06-14T00:10:49;101521.56;;;15.55;100.00
12969;BME280;6549;53.128;8.182;2023-06-14T00:13:49;101524.78;;;15.39;100.00
12969;BME280;6549;53.128;8.182;2023-06-14T00:16:50;101526.75;;;15.39;100.00
12969;BME280;6549;53.128;8.182;2023-06-14T00:19:52;101533.91;;;15.25;100.00
12969;BME280;6549;53.128;8.182;2023-06-14T00:22:53;101529.53;;;15.28;100.00
12969;BME280;6549;53.128;8.182;2023-06-14T00:25:55;101531.91;;;15.29;100.00
12969;BME280;6549;53.128;8.182;2023-06-14T00:28:55;101531.16;;;15.11;100.00
12969;BME280;6549;53.128;8.182;2023-06-14T00:31:56;101529.56;;;15.07;100.00
12969;BME280;6549;53.128;8.182;2023-06-14T00:34:57;101534.31;;;14.99;100.00
12969;BME280;6549;53.128;8.182;2023-06-14T00:37:57;101529.97;;;14.95;100.00
12969;BME280;6549;53.128;8.182;2023-06-14T00:40:57;101531.56;;;14.96;100.00
12969;BME280;6549;53.128;8.182;2023-06-14T00:43:58;101532.75;;;14.95;100.00
12969;BME280;6549;53.128;8.182;2023-06-14T00:46:59;101537.09;;;14.89;100.00
12969;BME280;6549;53.128;8.182;2023-06-14T00:50:01;101530.75;;;14.88;100.00
12969;BME280;6549;53.128;8.182;2023-06-14T00:53:02;101529.56;;;14.78;100.00
12969;BME280;6549;53.128;8.182;2023-06-14T00:56:03;101537.09;;;14.67;100.00
12969;BME280;6549;53.128;8.182;2023-06-14T00:59:03;101533.16;;;14.86;100.00
12969;BME280;6549;53.128;8.182;2023-06-14T01:02:04;101537.09;;;14.81;100.00
12969;BME280;6549;53.128;8.182;2023-06-14T01:05:06;101535.53;;;14.77;100.00
12969;BME280;6549;53.128;8.182;2023-06-14T01:08:27;101530.75;;;14.84;100.00
12969;BME280;6549;53.128;8.182;2023-06-14T01:11:32;101533.94;;;14.72;100.00
12969;BME280;6549;53.128;8.182;2023-06-14T01:14:37;101534.72;;;14.73;100.00
12969;BME280;6549;53.128;8.182;2023-06-14T01:17:39;101535.50;;;14.66;100.00
12969;BME280;6549;53.128;8.182;2023-06-14T01:20:41;101536.31;;;14.63;100.00
12969;BME280;6549;53.128;8.182;2023-06-14T01:23:42;101539.06;;;14.77;100.00
12969;BME280;6549;53.128;8.182;2023-06-14T01:26:42;101537.09;;;14.74;100.00
12969;BME280;6549;53.128;8.182;2023-06-14T01:29:45;101539.44;;;14.62;100.00
12969;BME280;6549;53.128;8.182;2023-06-14T01:32:46;101531.16;;;14.62;100.00
12969;BME280;6549;53.128;8.182;2023-06-14T01:35:49;101543.81;;;14.66;100.00
12969;BME280;6549;53.128;8.182;2023-06-14T01:38:50;101545.38;;;14.50;100.00
12969;BME280;6549;53.128;8.182;2023-06-14T01:41:51;101548.53;;;14.41;100.00
12969;BME280;6549;53.128;8.182;2023-06-14T01:44:53;101546.56;;;14.59;100.00
12969;BME280;6549;53.128;8.182;2023-06-14T01:47:55;101550.88;;;14.35;100.00
12969;BME280;6549;53.128;8.182;2023-06-14T01:50:55;101550.88;;;14.35;100.00
12969;BME280;6549;53.128;8.182;2023-06-14T01:53:56;101552.00;;;14.31;100.00
12969;BME280;6549;53.128;8.182;2023-06-14T01:56:57;101555.94;;;14.30;100.00
12969;BME280;6549;53.128;8.182;2023-06-14T01:59:57;101557.91;;;14.19;100.00
12969;BME280;6549;53.128;8.182;2023-06-14T02:02:58;101555.50;;;14.10;100.00
12969;BME280;6549;53.128;8.182;2023-06-14T02:05:58;101558.28;;;14.10;100.00
12969;BME280;6549;53.128;8.182;2023-06-14T02:08:59;101555.50;;;14.07;100.00
12969;BME280;6549;53.128;8.182;2023-06-14T02:11:59;101558.72;;;14.26;100.00
12969;BME280;6549;53.128;8.182;2023-06-14T02:14:59;101552.34;;;14.12;100.00
12969;BME280;6549;53.128;8.182;2023-06-14T02:18:04;101564.97;;;14.06;100.00
12969;BME280;6549;53.128;8.182;2023-06-14T02:21:04;101557.06;;;14.01;100.00
12969;BME280;6549;53.128;8.182;2023-06-14T02:24:05;101561.78;;;14.04;100.00
12969;BME280;6549;53.128;8.182;2023-06-14T02:27:05;101559.47;;;14.13;100.00
12969;BME280;6549;53.128;8.182;2023-06-14T02:30:07;101561.84;;;14.14;100.00
12969;BME280;6549;53.128;8.182;2023-06-14T02:33:07;101571.63;;;13.94;100.00
12969;BME280;6549;53.128;8.182;2023-06-14T02:36:08;101567.25;;;13.82;100.00
12969;BME280;6549;53.128;8.182;2023-06-14T02:39:09;101568.84;;;13.83;100.00
12969;BME280;6549;53.128;8.182;2023-06-14T02:42:10;101571.66;;;13.98;100.00
12969;BME280;6549;53.128;8.182;2023-06-14T02:45:11;101567.69;;;13.91;100.00
12969;BME280;6549;53.128;8.182;2023-06-14T02:48:11;101568.09;;;14.01;100.00
12969;BME280;6549;53.128;8.182;2023-06-14T02:51:11;101566.09;;;13.94;100.00
12969;BME280;6549;53.128;8.182;2023-06-14T02:54:12;101570.88;;;14.08;100.00
12969;BME280;6549;53.128;8.182;2023-06-14T02:57:13;101572.84;;;13.97;100.00
12969;BME280;6549;53.128;8.182;2023-06-14T03:00:14;101582.28;;;13.88;100.00
12969;BME280;6549;53.128;8.182;2023-06-14T03:03:14;101587.38;;;13.86;100.00
12969;BME280;6549;53.128;8.182;2023-06-14T03:06:16;101585.84;;;13.92;100.00
12969;BME280;6549;53.128;8.182;2023-06-14T03:09:16;101582.28;;;13.88;100.00
12969;BME280;6549;53.128;8.182;2023-06-14T03:12:17;101598.00;;;13.81;100.00
12969;BME280;6549;53.128;8.182;2023-06-14T03:15:17;101601.91;;;13.73;100.00
12969;BME280;6549;53.128;8.182;2023-06-14T03:18:17;101607.41;;;13.66;100.00
12969;BME280;6549;53.128;8.182;2023-06-14T03:21:19;101609.38;;;13.65;100.00
12969;BME280;6549;53.128;8.182;2023-06-14T03:24:20;101611.31;;;13.61;100.00
12969;BME280;6549;53.128;8.182;2023-06-14T03:27:21;101611.34;;;13.65;100.00
12969;BME280;6549;53.128;8.182;2023-06-14T03:30:22;101612.13;;;13.65;100.00
12969;BME280;6549;53.128;8.182;2023-06-14T03:33:22;101614.47;;;13.63;100.00
12969;BME280;6549;53.128;8.182;2023-06-14T03:36:22;101622.72;;;13.56;100.00
12969;BME280;6549;53.128;8.182;2023-06-14T03:39:22;101615.22;;;13.53;100.00
12969;BME280;6549;53.128;8.182;2023-06-14T03:42:23;101618.91;;;13.75;100.00
12969;BME280;6549;53.128;8.182;2023-06-14T03:45:23;101625.56;;;13.67;100.00
12969;BME280;6549;53.128;8.182;2023-06-14T03:48:23;101623.59;;;13.67;100.00
12969;BME280;6549;53.128;8.182;2023-06-14T03:51:24;101629.53;;;13.73;100.00
12969;BME280;6549;53.128;8.182;2023-06-14T03:54:25;101627.13;;;13.68;100.00
12969;BME280;6549;53.128;8.182;2023-06-14T03:57:26;101628.28;;;13.63;100.00
12969;BME280;6549;53.128;8.182;2023-06-14T04:00:26;101637.03;;;13.72;100.00
12969;BME280;6549;53.128;8.182;2023-06-14T04:03:27;101636.75;;;13.91;100.00
12969;BME280;6549;53.128;8.182;2023-06-14T04:06:29;101647.88;;;14.06;100.00
12969;BME280;6549;53.128;8.182;2023-06-14T04:09:32;101646.31;;;14.08;100.00
12969;BME280;6549;53.128;8.182;2023-06-14T04:12:33;101645.50;;;14.08;100.00
12969;BME280;6549;53.128;8.182;2023-06-14T04:15:33;101644.31;;;14.05;100.00
12969;BME280;6549;53.128;8.182;2023-06-14T04:18:34;101651.09;;;14.15;100.00
12969;BME280;6549;53.128;8.182;2023-06-14T04:21:34;101647.97;;;14.23;100.00
12969;BME280;6549;53.128;8.182;2023-06-14T04:24:35;101641.66;;;14.26;100.00
12969;BME280;6549;53.128;8.182;2023-06-14T04:27:35;101650.47;;;14.53;100.00
12969;BME280;6549;53.128;8.182;2023-06-14T04:30:36;101656.41;;;14.59;100.00
12969;BME280;6549;53.128;8.182;2023-06-14T04:33:38;101658.44;;;14.76;100.00
12969;BME280;6549;53.128;8.182;2023-06-14T04:36:43;101662.41;;;14.86;100.00
12969;BME280;6549;53.128;8.182;2023-06-14T04:39:49;101660.41;;;14.75;100.00
12969;BME280;6549;53.128;8.182;2023-06-14T04:42:50;101661.63;;;14.81;100.00
12969;BME280;6549;53.128;8.182;2023-06-14T04:45:51;101658.88;;;14.99;100.00
12969;BME280;6549;53.128;8.182;2023-06-14T04:48:52;101660.06;;;14.95;100.00
12969;BME280;6549;53.128;8.182;2023-06-14T04:51:52;101666.34;;;14.88;100.00
12969;BME280;6549;53.128;8.182;2023-06-14T05:05:52;101673.91;;;15.37;100.00
12969;BME280;6549;53.128;8.182;2023-06-14T05:13:23;101687.78;;;15.72;100.00
12969;BME280;6549;53.128;8.182;2023-06-14T05:46:02;101702.69;;;17.12;100.00
12969;BME280;6549;53.128;8.182;2023-06-14T05:52:15;101712.47;;;17.34;100.00
12969;BME280;6549;53.128;8.182;2023-06-14T05:58:26;101711.00;;;17.67;100.00
12969;BME280;6549;53.128;8.182;2023-06-14T06:01:29;101708.09;;;17.81;100.00
12969;BME280;6549;53.128;8.182;2023-06-14T06:04:33;101710.38;;;17.93;100.00
12969;BME280;6549;53.128;8.182;2023-06-14T06:07:37;101721.25;;;18.18;100.00
12969;BME280;6549;53.128;8.182;2023-06-14T06:10:38;101715.31;;;18.50;100.00
12969;BME280;6549;53.128;8.182;2023-06-14T06:13:38;101730.06;;;18.80;100.00
12969;BME280;6549;53.128;8.182;2023-06-14T06:16:39;101724.59;;;19.00;100.00
12969;BME280;6549;53.128;8.182;2023-06-14T06:19:40;101733.13;;;19.43;100.00
12969;BME280;6549;53.128;8.182;2023-06-14T06:22:40;101731.38;;;19.53;100.00
12969;BME280;6549;53.128;8.182;2023-06-14T06:25:44;101728.75;;;19.42;100.00
12969;BME280;6549;53.128;8.182;2023-06-14T06:28:45;101728.28;;;19.20;100.00
12969;BME280;6549;53.128;8.182;2023-06-14T06:31:45;101725.31;;;19.58;100.00
12969;BME280;6549;53.128;8.182;2023-06-14T06:34:46;101736.13;;;19.56;100.00
12969;BME280;6549;53.128;8.182;2023-06-14T06:37:46;101732.06;;;19.34;100.00
12969;BME280;6549;53.128;8.182;2023-06-14T06:40:47;101738.94;;;19.52;100.00
12969;BME280;6549;53.128;8.182;2023-06-14T06:43:47;101739.38;;;19.97;100.00
12969;BME280;6549;53.128;8.182;2023-06-14T06:46:47;101746.09;;;20.00;100.00
12969;BME280;6549;53.128;8.182;2023-06-14T06:49:48;101756.25;;;20.10;100.00
12969;BME280;6549;53.128;8.182;2023-06-14T06:52:49;101751.63;;;20.23;100.00
12969;BME280;6549;53.128;8.182;2023-06-14T06:55:49;101748.91;;;20.19;100.00
12969;BME280;6549;53.128;8.182;2023-06-14T06:58:50;101753.34;;;20.60;100.00
12969;BME280;6549;53.128;8.182;2023-06-14T07:01:51;101762.84;;;20.82;100.00
12969;BME280;6549;53.128;8.182;2023-06-14T07:04:51;101758.53;;;20.97;89.81
12969;BME280;6549;53.128;8.182;2023-06-14T07:07:51;101758.69;;;20.51;95.65
12969;BME280;6549;53.128;8.182;2023-06-14T07:10:52;101761.03;;;20.92;93.25
12969;BME280;6549;53.128;8.182;2023-06-14T07:13:52;101766.19;;;21.13;87.52
12969;BME280;6549;53.128;8.182;2023-06-14T07:16:53;101756.78;;;21.23;83.56
12969;BME280;6549;53.128;8.182;2023-06-14T07:19:53;101758.00;;;21.02;88.19
12969;BME280;6549;53.128;8.182;2023-06-14T07:22:53;101755.09;;;21.26;83.86
12969;BME280;6549;53.128;8.182;2023-06-14T07:25:53;101766.84;;;21.69;82.81
12969;BME280;6549;53.128;8.182;2023-06-14T07:28:54;101764.25;;;22.23;80.53
12969;BME280;6549;53.128;8.182;2023-06-14T07:31:54;101763.88;;;21.92;76.80
12969;BME280;6549;53.128;8.182;2023-06-14T07:34:55;101754.59;;;22.53;81.27
12969;BME280;6549;53.128;8.182;2023-06-14T07:37:55;101758.81;;;22.32;74.30
12969;BME280;6549;53.128;8.182;2023-06-14T07:40:55;101753.59;;;22.47;71.92
12969;BME280;6549;53.128;8.182;2023-06-14T07:43:56;101757.59;;;22.17;71.27
12969;BME280;6549;53.128;8.182;2023-06-14T07:46:56;101750.13;;;22.43;71.34
12969;BME280;6549;53.128;8.182;2023-06-14T07:49:58;101755.75;;;21.98;71.05
12969;BME280;6549;53.128;8.182;2023-06-14T07:52:58;101756.16;;;22.13;76.03
12969;BME280;6549;53.128;8.182;2023-06-14T07:55:59;101756.31;;;22.06;74.37
12969;BME280;6549;53.128;8.182;2023-06-14T07:59:00;101759.28;;;22.15;73.70
12969;BME280;6549;53.128;8.182;2023-06-14T08:02:00;101757.38;;;21.95;74.17
12969;BME280;6549;53.128;8.182;2023-06-14T08:05:00;101754.06;;;22.58;70.17
12969;BME280;6549;53.128;8.182;2023-06-14T08:08:01;101759.84;;;22.38;70.55
12969;BME280;6549;53.128;8.182;2023-06-14T08:11:01;101771.38;;;22.40;69.54
12969;BME280;6549;53.128;8.182;2023-06-14T08:14:02;101763.81;;;22.66;67.64
12969;BME280;6549;53.128;8.182;2023-06-14T08:17:02;101770.28;;;22.51;68.72
12969;BME280;6549;53.128;8.182;2023-06-14T08:20:03;101772.34;;;22.05;67.04
12969;BME280;6549;53.128;8.182;2023-06-14T08:23:05;101764.78;;;22.18;67.96
12969;BME280;6549;53.128;8.182;2023-06-14T08:26:05;101769.63;;;22.47;68.29
12969;BME280;6549;53.128;8.182;2023-06-14T08:29:06;101760.19;;;22.69;64.45
12969;BME280;6549;53.128;8.182;2023-06-14T08:32:09;101757.31;;;23.36;65.21
12969;BME280;6549;53.128;8.182;2023-06-14T08:35:10;101761.00;;;23.33;61.33
12969;BME280;6549;53.128;8.182;2023-06-14T08:38:12;101764.50;;;23.62;58.54
12969;BME280;6549;53.128;8.182;2023-06-14T08:41:20;101758.44;;;23.51;57.94
12969;BME280;6549;53.128;8.182;2023-06-14T08:44:21;101765.06;;;23.57;55.33
12969;BME280;6549;53.128;8.182;2023-06-14T08:47:23;101771.25;;;23.52;56.47
12969;BME280;6549;53.128;8.182;2023-06-14T08:50:26;101767.03;;;23.82;54.84
12969;BME280;6549;53.128;8.182;2023-06-14T08:53:33;101759.78;;;23.34;55.83
12969;BME280;6549;53.128;8.182;2023-06-14T08:56:37;101758.53;;;22.97;55.94
12969;BME280;6549;53.128;8.182;2023-06-14T08:59:44;101758.69;;;22.36;56.03
12969;BME280;6549;53.128;8.182;2023-06-14T09:02:46;101768.72;;;22.21;55.74
12969;BME280;6549;53.128;8.182;2023-06-14T09:05:46;101763.44;;;22.39;54.75
12969;BME280;6549;53.128;8.182;2023-06-14T09:08:47;101771.09;;;22.51;56.34
12969;BME280;6549;53.128;8.182;2023-06-14T09:11:50;101769.66;;;23.51;53.83
12969;BME280;6549;53.128;8.182;2023-06-14T09:14:50;101761.81;;;23.46;53.38
12969;BME280;6549;53.128;8.182;2023-06-14T09:17:51;101765.84;;;23.70;51.51
12969;BME280;6549;53.128;8.182;2023-06-14T09:20:51;101772.91;;;23.37;52.04
12969;BME280;6549;53.128;8.182;2023-06-14T09:23:53;101764.25;;;22.94;52.27
12969;BME280;6549;53.128;8.182;2023-06-14T09:26:54;101769.00;;;23.22;52.35
12969;BME280;6549;53.128;8.182;2023-06-14T09:29:55;101780.22;;;23.47;52.47
12969;BME280;6549;53.128;8.182;2023-06-14T09:32:55;101781.34;;;23.62;53.82
12969;BME280;6549;53.128;8.182;2023-06-14T09:35:56;101783.31;;;23.87;51.33
12969;BME280;6549;53.128;8.182;2023-06-14T09:39:01;101781.78;;;23.61;53.01
12969;BME280;6549;53.128;8.182;2023-06-14T09:42:19;101784.25;;;24.19;50.71
12969;BME280;6549;53.128;8.182;2023-06-14T09:45:20;101776.88;;;23.99;52.26
12969;BME280;6549;53.128;8.182;2023-06-14T09:48:21;101768.31;;;23.68;51.35
12969;BME280;6549;53.128;8.182;2023-06-14T09:51:23;101770.47;;;24.11;50.64
12969;BME280;6549;53.128;8.182;2023-06-14T09:54:25;101772.13;;;24.09;50.20
12969;BME280;6549;53.128;8.182;2023-06-14T09:57:26;101774.75;;;24.16;50.41
12969;BME280;6549;53.128;8.182;2023-06-14T10:00:27;101769.78;;;24.64;50.36
12969;BME280;6549;53.128;8.182;2023-06-14T10:03:31;101781.78;;;25.08;50.58
12969;BME280;6549;53.128;8.182;2023-06-14T10:06:36;101774.94;;;24.43;48.79
12969;BME280;6549;53.128;8.182;2023-06-14T10:09:37;101754.34;;;24.90;48.19
12969;BME280;6549;53.128;8.182;2023-06-14T10:12:39;101767.84;;;24.51;49.87
12969;BME280;6549;53.128;8.182;2023-06-14T10:15:52;101762.16;;;24.86;49.10
12969;BME280;6549;53.128;8.182;2023-06-14T10:22:27;101765.78;;;25.26;50.53
12969;BME280;6549;53.128;8.182;2023-06-14T10:25:30;101763.19;;;25.50;47.37
12969;BME280;6549;53.128;8.182;2023-06-14T10:28:30;101766.69;;;24.71;49.90
12969;BME280;6549;53.128;8.182;2023-06-14T10:31:49;101766.84;;;24.24;49.68
12969;BME280;6549;53.128;8.182;2023-06-14T10:35:06;101765.59;;;24.90;48.83
12969;BME280;6549;53.128;8.182;2023-06-14T10:38:11;101763.34;;;24.85;49.08
12969;BME280;6549;53.128;8.182;2023-06-14T10:41:12;101759.03;;;25.64;48.90
12969;BME280;6549;53.128;8.182;2023-06-14T10:47:33;101761.28;;;26.14;45.90
12969;BME280;6549;53.128;8.182;2023-06-14T10:50:35;101766.91;;;25.87;46.93
12969;BME280;6549;53.128;8.182;2023-06-14T10:53:40;101758.91;;;25.76;45.01
12969;BME280;6549;53.128;8.182;2023-06-14T10:56:48;101749.41;;;25.03;45.91
12969;BME280;6549;53.128;8.182;2023-06-14T10:59:48;101749.16;;;25.19;46.08
12969;BME280;6549;53.128;8.182;2023-06-14T11:06:14;101744.78;;;25.18;47.21
12969;BME280;6549;53.128;8.182;2023-06-14T11:12:31;101746.88;;;26.12;45.40
12969;BME280;6549;53.128;8.182;2023-06-14T11:15:36;101731.38;;;25.80;45.83
12969;BME280;6549;53.128;8.182;2023-06-14T11:18:36;101737.75;;;25.63;46.54
12969;BME280;6549;53.128;8.182;2023-06-14T11:21:40;101735.69;;;25.54;45.89
12969;BME280;6549;53.128;8.182;2023-06-14T11:24:40;101737.13;;;25.19;45.33
12969;BME280;6549;53.128;8.182;2023-06-14T11:27:42;101728.56;;;24.60;45.70
12969;BME280;6549;53.128;8.182;2023-06-14T11:30:43;101729.03;;;24.37;46.80
12969;BME280;6549;53.128;8.182;2023-06-14T11:33:49;101727.69;;;24.73;46.71
12969;BME280;6549;53.128;8.182;2023-06-14T11:36:50;101723.31;;;24.72;48.02
12969;BME280;6549;53.128;8.182;2023-06-14T11:39:50;101705.19;;;24.73;46.82
12969;BME280;6549;53.128;8.182;2023-06-14T11:42:58;101712.22;;;24.99;47.02
12969;BME280;6549;53.128;8.182;2023-06-14T11:46:00;101717.75;;;25.61;44.75
12969;BME280;6549;53.128;8.182;2023-06-14T11:49:01;101706.97;;;25.19;44.84
12969;BME280;6549;53.128;8.182;2023-06-14T11:52:03;101711.25;;;24.93;44.84
12969;BME280;6549;53.128;8.182;2023-06-14T11:55:04;101699.59;;;25.03;44.37
12969;BME280;6549;53.128;8.182;2023-06-14T11:58:06;101699.06;;;25.45;44.20
12969;BME280;6549;53.128;8.182;2023-06-14T12:01:06;101714.44;;;25.53;44.87
12969;BME280;6549;53.128;8.182;2023-06-14T12:04:07;101705.56;;;25.82;43.21
12969;BME280;6549;53.128;8.182;2023-06-14T12:07:11;101696.97;;;25.76;42.27
12969;BME280;6549;53.128;8.182;2023-06-14T12:10:16;101697.59;;;25.99;43.30
12969;BME280;6549;53.128;8.182;2023-06-14T12:13:17;101696.81;;;26.25;44.09
12969;BME280;6549;53.128;8.182;2023-06-14T12:16:17;101693.41;;;26.91;41.59
12969;BME280;6549;53.128;8.182;2023-06-14T12:19:17;101689.75;;;26.39;41.95
12969;BME280;6549;53.128;8.182;2023-06-14T12:22:18;101701.34;;;26.41;42.17
12969;BME280;6549;53.128;8.182;2023-06-14T12:25:29;101691.53;;;26.78;42.24
12969;BME280;6549;53.128;8.182;2023-06-14T12:28:31;101699.00;;;26.03;41.63
12969;BME280;6549;53.128;8.182;2023-06-14T12:31:31;101701.69;;;26.07;41.27
12969;BME280;6549;53.128;8.182;2023-06-14T12:34:32;101700.47;;;25.49;42.00
12969;BME280;6549;53.128;8.182;2023-06-14T12:37:32;101690.69;;;25.54;42.97
12969;BME280;6549;53.128;8.182;2023-06-14T12:40:33;101685.53;;;25.62;42.07
12969;BME280;6549;53.128;8.182;2023-06-14T12:43:33;101684.78;;;24.81;42.63
12969;BME280;6549;53.128;8.182;2023-06-14T12:46:34;101681.38;;;25.26;43.52
12969;BME280;6549;53.128;8.182;2023-06-14T12:49:35;101686.69;;;25.24;41.43
12969;BME280;6549;53.128;8.182;2023-06-14T12:52:35;101689.94;;;25.14;42.75
12969;BME280;6549;53.128;8.182;2023-06-14T12:55:38;101687.13;;;24.83;43.66
12969;BME280;6549;53.128;8.182;2023-06-14T12:58:38;101690.44;;;25.21;43.30
12969;BME280;6549;53.128;8.182;2023-06-14T13:01:39;101692.03;;;25.40;44.02
12969;BME280;6549;53.128;8.182;2023-06-14T13:04:40;101680.69;;;25.99;42.38
12969;BME280;6549;53.128;8.182;2023-06-14T13:07:40;101683.81;;;26.19;40.10
12969;BME280;6549;53.128;8.182;2023-06-14T13:10:40;101682.81;;;26.58;40.50
12969;BME280;6549;53.128;8.182;2023-06-14T13:13:41;101684.75;;;26.34;39.10
12969;BME280;6549;53.128;8.182;2023-06-14T13:16:41;101680.03;;;26.49;40.20
12969;BME280;6549;53.128;8.182;2023-06-14T13:19:41;101687.22;;;27.01;40.22
12969;BME280;6549;53.128;8.182;2023-06-14T13:22:45;101683.34;;;27.22;37.19
12969;BME280;6549;53.128;8.182;2023-06-14T13:25:45;101678.72;;;27.10;39.00
12969;BME280;6549;53.128;8.182;2023-06-14T13:28:45;101686.16;;;27.55;38.87
12969;BME280;6549;53.128;8.182;2023-06-14T13:31:46;101680.50;;;26.38;39.16
12969;BME280;6549;53.128;8.182;2023-06-14T13:34:49;101679.75;;;26.20;40.34
12969;BME280;6549;53.128;8.182;2023-06-14T13:37:50;101681.00;;;26.10;41.03
12969;BME280;6549;53.128;8.182;2023-06-14T13:40:50;101676.28;;;25.52;41.10
12969;BME280;6549;53.128;8.182;2023-06-14T13:43:51;101683.53;;;25.62;41.49
12969;BME280;6549;53.128;8.182;2023-06-14T13:46:51;101684.28;;;25.81;42.22
12969;BME280;6549;53.128;8.182;2023-06-14T13:49:51;101682.41;;;25.60;42.01
12969;BME280;6549;53.128;8.182;2023-06-14T13:52:51;101685.91;;;25.33;41.70
12969;BME280;6549;53.128;8.182;2023-06-14T13:55:52;101682.59;;;25.16;42.62
12969;BME280;6549;53.128;8.182;2023-06-14T13:58:52;101681.63;;;25.10;42.83
12969;BME280;6549;53.128;8.182;2023-06-14T14:01:53;101685.03;;;24.96;43.60
12969;BME280;6549;53.128;8.182;2023-06-14T14:04:53;101682.59;;;25.16;43.01
12969;BME280;6549;53.128;8.182;2023-06-14T14:07:55;101680.06;;;25.76;42.63
12969;BME280;6549;53.128;8.182;2023-06-14T14:10:55;101675.06;;;25.99;41.65
12969;BME280;6549;53.128;8.182;2023-06-14T14:13:56;101670.22;;;25.99;40.44
12969;BME280;6549;53.128;8.182;2023-06-14T14:16:57;101664.75;;;26.23;41.77
12969;BME280;6549;53.128;8.182;2023-06-14T14:19:57;101662.38;;;26.30;40.85
12969;BME280;6549;53.128;8.182;2023-06-14T14:22:57;101656.88;;;26.45;41.03
12969;BME280;6549;53.128;8.182;2023-06-14T14:25:58;101655.00;;;26.93;41.25
12969;BME280;6549;53.128;8.182;2023-06-14T14:29:00;101664.13;;;26.70;41.65
12969;BME280;6549;53.128;8.182;2023-06-14T14:32:02;101657.47;;;26.49;41.95
12969;BME280;6549;53.128;8.182;2023-06-14T14:35:03;101662.53;;;26.27;40.71
12969;BME280;6549;53.128;8.182;2023-06-14T14:38:03;101663.78;;;25.99;42.14
12969;BME280;6549;53.128;8.182;2023-06-14T14:41:05;101671.16;;;25.78;42.82
12969;BME280;6549;53.128;8.182;2023-06-14T14:44:05;101663.66;;;26.02;41.48
12969;BME280;6549;53.128;8.182;2023-06-14T14:47:06;101663.78;;;25.99;41.91
12969;BME280;6549;53.128;8.182;2023-06-14T14:50:06;101666.44;;;26.29;41.14
12969;BME280;6549;53.128;8.182;2023-06-14T14:53:09;101670.63;;;26.52;41.96
12969;BME280;6549;53.128;8.182;2023-06-14T14:56:09;101663.94;;;26.31;40.71
12969;BME280;6549;53.128;8.182;2023-06-14T14:59:09;101662.09;;;26.01;41.95
12969;BME280;6549;53.128;8.182;2023-06-14T15:02:13;101666.94;;;25.73;42.37
12969;BME280;6549;53.128;8.182;2023-06-14T15:05:13;101670.31;;;25.41;43.21
12969;BME280;6549;53.128;8.182;2023-06-14T15:08:14;101671.38;;;25.25;43.54
12969;BME280;6549;53.128;8.182;2023-06-14T15:11:14;101663.66;;;25.08;43.94
12969;BME280;6549;53.128;8.182;2023-06-14T15:14:14;101675.00;;;24.86;44.09
12969;BME280;6549;53.128;8.182;2023-06-14T15:17:15;101670.09;;;24.77;44.94
12969;BME280;6549;53.128;8.182;2023-06-14T15:20:16;101658.00;;;24.68;43.64
12969;BME280;6549;53.128;8.182;2023-06-14T15:23:16;101656.03;;;24.77;44.99
12969;BME280;6549;53.128;8.182;2023-06-14T15:26:20;101662.16;;;24.85;45.37
12969;BME280;6549;53.128;8.182;2023-06-14T15:29:20;101656.94;;;24.96;44.08
12969;BME280;6549;53.128;8.182;2023-06-14T15:32:21;101659.88;;;25.01;44.67
12969;BME280;6549;53.128;8.182;2023-06-14T15:35:21;101661.03;;;25.13;44.41
12969;BME280;6549;53.128;8.182;2023-06-14T15:38:22;101663.47;;;25.02;44.65
12969;BME280;6549;53.128;8.182;2023-06-14T15:41:22;101653.22;;;25.17;44.58
12969;BME280;6549;53.128;8.182;2023-06-14T15:44:22;101668.94;;;25.55;41.74
12969;BME280;6549;53.128;8.182;2023-06-14T15:47:23;101653.31;;;25.99;42.13
12969;BME280;6549;53.128;8.182;2023-06-14T15:50:24;101659.69;;;26.45;41.83
12969;BME280;6549;53.128;8.182;2023-06-14T15:53:24;101658.63;;;26.75;41.74
12969;BME280;6549;53.128;8.182;2023-06-14T15:56:25;101656.34;;;27.07;40.61
12969;BME280;6549;53.128;8.182;2023-06-14T15:59:25;101658.88;;;26.96;38.79
12969;BME280;6549;53.128;8.182;2023-06-14T16:02:28;101653.78;;;26.85;37.97
12969;BME280;6549;53.128;8.182;2023-06-14T16:05:28;101650.28;;;26.48;38.62
12969;BME280;6549;53.128;8.182;2023-06-14T16:08:28;101649.41;;;26.24;39.63
12969;BME280;6549;53.128;8.182;2023-06-14T16:11:29;101647.84;;;25.96;39.17
12969;BME280;6549;53.128;8.182;2023-06-14T16:14:29;101639.56;;;26.01;39.49
12969;BME280;6549;53.128;8.182;2023-06-14T16:17:29;101643.44;;;26.04;39.73
12969;BME280;6549;53.128;8.182;2023-06-14T16:20:30;101644.84;;;26.26;39.15
12969;BME280;6549;53.128;8.182;2023-06-14T16:23:30;101640.53;;;26.58;38.91
12969;BME280;6549;53.128;8.182;2023-06-14T16:26:30;101638.63;;;26.64;39.18
12969;BME280;6549;53.128;8.182;2023-06-14T16:29:31;101640.41;;;26.53;39.64
12969;BME280;6549;53.128;8.182;2023-06-14T16:32:32;101639.38;;;26.23;40.44
12969;BME280;6549;53.128;8.182;2023-06-14T16:35:32;101636.44;;;25.81;42.12
12969;BME280;6549;53.128;8.182;2023-06-14T16:38:32;101636.28;;;25.84;42.09
12969;BME280;6549;53.128;8.182;2023-06-14T16:41:33;101639.88;;;25.58;43.24
12969;BME280;6549;53.128;8.182;2023-06-14T16:44:33;101642.63;;;25.30;43.33
12969;BME280;6549;53.128;8.182;2023-06-14T16:47:33;101638.03;;;25.05;43.38
12969;BME280;6549;53.128;8.182;2023-06-14T16:50:34;101644.47;;;24.75;43.86
12969;BME280;6549;53.128;8.182;2023-06-14T16:53:34;101645.19;;;24.67;43.93
12969;BME280;6549;53.128;8.182;2023-06-14T16:56:35;101643.41;;;24.51;44.51
12969;BME280;6549;53.128;8.182;2023-06-14T16:59:35;101644.09;;;24.33;45.58